createdAt,value
2023-10-12T00:00:26.749Z,58.20
2023-10-12T00:02:56.531Z,58.10
2023-10-12T00:05:33.899Z,58.30
2023-10-12T00:08:12.430Z,58.40
2023-10-12T00:10:51.968Z,58.40
2023-10-12T00:13:32.916Z,58.30
2023-10-12T00:16:13.557Z,58.30
2023-10-12T00:18:47.187Z,58.60
2023-10-12T00:21:31.403Z,58.70
2023-10-12T00:24:12.420Z,59.20
2023-10-12T00:26:43.928Z,58.70
2023-10-12T00:29:14.006Z,58.70
2023-10-12T00:31:48.969Z,58.60
2023-10-12T00:34:31.920Z,58.80
2023-10-12T00:37:12.833Z,59.10
2023-10-12T00:40:00.611Z,58.70
2023-10-12T00:42:47.280Z,59.10
2023-10-12T00:45:33.500Z,59.20
2023-10-12T00:48:11.644Z,58.90
2023-10-12T00:50:58.804Z,59.00
2023-10-12T00:53:38.857Z,59.40
2023-10-12T00:56:08.037Z,58.70
2023-10-12T00:58:51.398Z,58.90
2023-10-12T01:01:36.093Z,59.10
2023-10-12T01:04:20.062Z,59.10
2023-10-12T01:07:02.582Z,59.00
2023-10-12T01:09:40.907Z,59.20
2023-10-12T01:12:18.486Z,59.10
2023-10-12T01:14:56.133Z,58.80
2023-10-12T01:17:41.763Z,59.30
2023-10-12T01:20:20.408Z,58.70
2023-10-12T01:22:53.429Z,58.80
2023-10-12T01:25:32.804Z,59.20
2023-10-12T01:28:08.574Z,58.80
2023-10-12T01:30:41.751Z,58.80
2023-10-12T01:33:18.417Z,58.90
2023-10-12T01:35:55.938Z,58.90
2023-10-12T01:38:38.587Z,58.80
2023-10-12T01:41:15.072Z,59.20
2023-10-12T01:43:50.315Z,59.00
2023-10-12T01:46:28.186Z,59.00
2023-10-12T01:49:09.681Z,58.90
2023-10-12T01:51:46.834Z,59.10
2023-10-12T01:54:25.931Z,59.20
2023-10-12T01:56:54.873Z,59.10
2023-10-12T01:59:26.509Z,59.10
2023-10-12T02:02:11.839Z,59.00
2023-10-12T02:04:49.954Z,59.20
2023-10-12T02:07:29.333Z,59.40
2023-10-12T02:10:13.702Z,59.30
2023-10-12T02:12:51.865Z,59.10
2023-10-12T02:15:33.671Z,59.40
2023-10-12T02:18:15.332Z,59.20
2023-10-12T02:21:01.221Z,59.60
2023-10-12T02:23:39.719Z,59.90
2023-10-12T02:26:30.113Z,59.70
2023-10-12T02:29:15.101Z,59.70
2023-10-12T02:32:09.073Z,59.90
2023-10-12T02:34:48.856Z,59.70
2023-10-12T02:37:25.926Z,60.30
2023-10-12T02:40:17.455Z,60.30
2023-10-12T02:42:55.773Z,59.90
2023-10-12T02:45:38.139Z,60.20
2023-10-12T02:48:24.745Z,59.90
2023-10-12T02:51:07.813Z,60.00
2023-10-12T02:53:49.655Z,60.20
2023-10-12T02:56:28.280Z,60.20
2023-10-12T02:59:07.747Z,60.30
2023-10-12T03:01:43.189Z,60.30
2023-10-12T03:04:22.019Z,60.30
2023-10-12T03:07:13.567Z,60.30
2023-10-12T03:09:47.079Z,60.10
2023-10-12T03:12:25.190Z,60.50
2023-10-12T03:15:05.463Z,60.60
2023-10-12T03:17:49.303Z,60.60
2023-10-12T03:20:25.615Z,60.40
2023-10-12T03:23:01.375Z,60.70
2023-10-12T03:25:52.376Z,60.70
2023-10-12T03:28:30.949Z,60.70
2023-10-12T03:31:16.352Z,60.50
2023-10-12T03:33:48.026Z,60.40
2023-10-12T03:36:24.721Z,60.50
2023-10-12T03:39:22.403Z,60.60
2023-10-12T03:42:14.431Z,60.60
2023-10-12T03:44:52.751Z,60.90
2023-10-12T03:47:51.876Z,61.30
2023-10-12T03:50:24.743Z,61.30
2023-10-12T03:52:56.878Z,61.10
2023-10-12T03:55:47.080Z,61.10
2023-10-12T03:58:29.626Z,61.40
2023-10-12T04:01:13.759Z,60.90
2023-10-12T04:03:59.816Z,61.30
2023-10-12T04:06:54.532Z,61.10
2023-10-12T04:09:35.652Z,61.10
2023-10-12T04:12:20.975Z,61.50
2023-10-12T04:15:28.261Z,61.10
2023-10-12T04:18:08.637Z,61.30
2023-10-12T04:20:45.242Z,61.50
2023-10-12T04:23:39.293Z,61.00
2023-10-12T04:26:28.755Z,61.40
2023-10-12T04:29:00.444Z,61.70
2023-10-12T04:31:55.562Z,61.50
2023-10-12T04:34:27.336Z,61.70
2023-10-12T04:37:13.432Z,61.70
2023-10-12T04:40:01.107Z,61.90
2023-10-12T04:42:46.235Z,61.50
2023-10-12T04:45:28.572Z,61.60
2023-10-12T04:48:18.845Z,62.10
2023-10-12T04:50:58.211Z,62.20
2023-10-12T04:53:37.414Z,62.10
2023-10-12T04:56:14.475Z,62.10
2023-10-12T04:58:57.486Z,62.20
2023-10-12T05:01:30.491Z,62.00
2023-10-12T05:04:10.459Z,61.80
2023-10-12T05:06:47.572Z,61.80
2023-10-12T05:09:19.712Z,61.80
2023-10-12T05:11:51.403Z,62.10
2023-10-12T05:14:22.452Z,62.50
2023-10-12T05:16:52.480Z,62.50
2023-10-12T05:19:28.051Z,62.50
2023-10-12T05:22:03.729Z,62.60
2023-10-12T05:24:43.786Z,62.50
2023-10-12T05:27:24.763Z,62.50
2023-10-12T05:30:02.032Z,62.70
2023-10-12T05:32:44.453Z,62.40
2023-10-12T05:35:17.323Z,62.70
2023-10-12T05:37:50.511Z,62.70
2023-10-12T05:40:25.156Z,62.80
2023-10-12T05:42:58.195Z,63.20
2023-10-12T05:45:45.889Z,62.70
2023-10-12T05:48:23.928Z,62.90
2023-10-12T05:50:56.826Z,63.30
2023-10-12T05:53:33.437Z,63.20
2023-10-12T05:56:12.053Z,63.20
2023-10-12T05:58:50.883Z,63.00
2023-10-12T06:04:07.457Z,63.30
2023-10-12T06:06:57.935Z,63.40
2023-10-12T06:09:28.678Z,63.50
2023-10-12T06:12:07.507Z,63.60
2023-10-12T06:14:55.627Z,63.90
2023-10-12T06:17:36.568Z,63.60
2023-10-12T06:20:15.832Z,64.00
2023-10-12T06:22:57.559Z,64.00
2023-10-12T06:25:56.862Z,64.00
2023-10-12T06:28:43.123Z,64.10
2023-10-12T06:31:11.553Z,64.40
2023-10-12T06:33:43.227Z,64.20
2023-10-12T06:36:24.973Z,64.30
2023-10-12T06:39:27.658Z,64.70
2023-10-12T06:42:04.252Z,64.60
2023-10-12T06:44:51.693Z,64.70
2023-10-12T06:47:32.364Z,64.70
2023-10-12T06:50:06.024Z,64.80
2023-10-12T06:52:36.394Z,64.90
2023-10-12T06:55:10.365Z,64.50
2023-10-12T06:58:18.005Z,64.70
2023-10-12T07:01:23.660Z,65.00
2023-10-12T07:03:54.285Z,64.80
2023-10-12T07:06:25.584Z,65.30
2023-10-12T07:09:03.402Z,65.50
2023-10-12T07:11:40.893Z,65.60
2023-10-12T07:14:18.065Z,66.50
2023-10-12T07:16:56.483Z,66.90
2023-10-12T07:19:27.898Z,66.90
2023-10-12T07:22:10.023Z,67.50
2023-10-12T07:24:48.224Z,68.20
2023-10-12T07:27:20.307Z,67.80
2023-10-12T07:30:11.476Z,68.60
2023-10-12T07:32:57.717Z,68.60
2023-10-12T07:35:38.830Z,69.10
2023-10-12T07:38:14.459Z,69.20
2023-10-12T07:40:57.480Z,69.10
2023-10-12T07:43:33.472Z,69.40
2023-10-12T07:46:14.182Z,69.70
2023-10-12T07:48:53.358Z,70.00
2023-10-12T07:51:28.975Z,69.50
2023-10-12T07:57:27.620Z,70.10
2023-10-12T08:00:00.716Z,70.40
2023-10-12T08:03:05.588Z,70.80
2023-10-12T08:06:02.346Z,70.60
2023-10-12T08:08:39.749Z,71.30
2023-10-12T08:11:27.779Z,71.30
2023-10-12T08:13:57.436Z,71.20
2023-10-12T08:16:29.509Z,71.40
2023-10-12T08:19:15.917Z,71.60
2023-10-12T08:21:48.729Z,71.90
2023-10-12T08:24:24.989Z,72.30
2023-10-12T08:27:02.171Z,72.40
2023-10-12T08:29:47.988Z,72.10
2023-10-12T08:32:30.097Z,72.20
2023-10-12T08:35:17.993Z,72.30
2023-10-12T08:38:07.606Z,72.40
2023-10-12T08:40:46.276Z,72.40
2023-10-12T08:43:33.692Z,72.60
2023-10-12T08:46:08.203Z,72.40
2023-10-12T08:48:36.974Z,72.40
2023-10-12T08:51:11.033Z,72.80
2023-10-12T08:53:42.777Z,72.70
2023-10-12T08:56:13.831Z,73.00
2023-10-12T08:58:52.845Z,72.80
2023-10-12T09:01:25.456Z,72.80
2023-10-12T09:04:02.314Z,72.80
2023-10-12T09:06:47.319Z,72.90
2023-10-12T09:09:37.700Z,73.00
2023-10-12T09:12:12.594Z,73.30
2023-10-12T09:14:44.815Z,73.30
2023-10-12T09:17:28.958Z,73.20
2023-10-12T09:20:11.922Z,73.10
2023-10-12T09:22:41.768Z,73.40
2023-10-12T09:25:28.170Z,73.50
2023-10-12T09:27:57.284Z,73.60
2023-10-12T09:30:28.461Z,73.90
2023-10-12T09:32:58.480Z,74.10
2023-10-12T09:35:41.343Z,74.10
2023-10-12T09:38:10.155Z,74.30
2023-10-12T09:40:41.526Z,74.20
2023-10-12T09:43:14.119Z,74.30
2023-10-12T09:45:48.688Z,74.00
2023-10-12T09:48:25.956Z,74.40
2023-10-12T09:50:57.834Z,74.40
2023-10-12T09:53:38.421Z,74.50
2023-10-12T09:56:18.289Z,74.50
2023-10-12T09:58:53.249Z,74.40
2023-10-12T10:01:37.928Z,74.80
2023-10-12T10:04:28.858Z,74.60
2023-10-12T10:07:16.523Z,74.60
2023-10-12T10:09:47.598Z,74.40
2023-10-12T10:12:18.914Z,74.40
2023-10-12T10:14:53.022Z,74.40
2023-10-12T10:17:27.841Z,74.50
2023-10-12T10:20:41.570Z,74.30
2023-10-12T10:23:15.422Z,74.30
2023-10-12T10:26:00.015Z,74.20
2023-10-12T10:28:34.496Z,74.20
2023-10-12T10:31:02.888Z,74.30
2023-10-12T10:33:40.957Z,74.30
2023-10-12T10:36:16.019Z,74.20
2023-10-12T10:38:55.276Z,74.10
2023-10-12T10:41:39.927Z,74.20
2023-10-12T10:44:16.900Z,74.10
2023-10-12T10:46:55.556Z,74.40
2023-10-12T10:49:34.421Z,74.10
2023-10-12T10:52:15.369Z,74.00
2023-10-12T10:54:58.084Z,73.90
2023-10-12T10:57:33.404Z,73.60
2023-10-12T11:00:11.553Z,73.70
2023-10-12T11:02:42.008Z,73.70
2023-10-12T11:05:20.752Z,73.60
2023-10-12T11:07:52.300Z,73.60
2023-10-12T11:10:32.680Z,73.50
2023-10-12T11:13:02.296Z,73.50
2023-10-12T11:15:34.790Z,73.30
2023-10-12T11:18:08.774Z,73.80
2023-10-12T11:20:46.539Z,73.50
2023-10-12T11:23:16.316Z,73.30
2023-10-12T11:25:50.609Z,73.40
2023-10-12T11:28:23.577Z,73.30
2023-10-12T11:31:03.210Z,73.10
2023-10-12T11:33:37.682Z,73.20
2023-10-12T11:36:07.475Z,73.00
2023-10-12T11:38:35.705Z,73.20
2023-10-12T11:41:18.773Z,73.30
2023-10-12T11:43:50.828Z,73.20
2023-10-12T11:46:20.856Z,73.20
2023-10-12T11:49:05.471Z,73.40
2023-10-12T11:51:41.248Z,73.30
2023-10-12T11:54:22.394Z,73.20
2023-10-12T11:56:53.144Z,73.30
2023-10-12T11:59:28.501Z,73.30
2023-10-12T12:02:05.844Z,73.30
2023-10-12T12:04:47.020Z,73.40
2023-10-12T12:07:24.308Z,73.50
2023-10-12T12:10:02.034Z,73.60
2023-10-12T12:12:33.744Z,73.60
2023-10-12T12:15:02.178Z,73.60
2023-10-12T12:17:31.999Z,73.80
2023-10-12T12:20:00.362Z,73.80
2023-10-12T12:22:40.020Z,73.80
2023-10-12T12:25:19.940Z,73.60
2023-10-12T12:27:50.578Z,73.60
2023-10-12T12:33:17.057Z,73.80
2023-10-12T12:35:48.062Z,73.70
2023-10-12T12:38:45.073Z,73.70
2023-10-12T12:41:20.856Z,73.80
2023-10-12T12:43:50.042Z,73.80
2023-10-12T12:46:18.990Z,73.70
2023-10-12T12:48:52.350Z,73.80
2023-10-12T12:51:21.519Z,74.00
2023-10-12T12:53:51.601Z,74.10
2023-10-12T12:56:21.321Z,74.00
2023-10-12T12:58:50.998Z,74.10
2023-10-12T13:01:20.030Z,74.30
2023-10-12T13:03:56.374Z,74.40
2023-10-12T13:06:25.280Z,74.40
2023-10-12T13:08:53.975Z,74.50
2023-10-12T13:11:23.064Z,74.50
2023-10-12T13:13:51.433Z,74.50
2023-10-12T13:16:22.854Z,74.60
2023-10-12T13:18:52.720Z,74.90
2023-10-12T13:21:23.731Z,74.90
2023-10-12T13:23:53.045Z,74.80
2023-10-12T13:26:24.338Z,74.70
2023-10-12T13:28:54.832Z,74.90
2023-10-12T13:31:25.194Z,74.80
2023-10-12T13:33:58.344Z,74.70
2023-10-12T13:36:29.218Z,74.80
2023-10-12T13:38:57.677Z,74.80
2023-10-12T13:41:26.490Z,74.70
2023-10-12T13:43:54.824Z,74.80
2023-10-12T13:46:26.380Z,74.80
2023-10-12T13:48:54.804Z,74.70
2023-10-12T13:51:32.581Z,74.70
2023-10-12T13:54:03.090Z,74.50
2023-10-12T13:56:36.099Z,74.80
2023-10-12T13:59:06.476Z,74.70
2023-10-12T14:01:38.136Z,74.50
2023-10-12T14:04:27.509Z,74.60
2023-10-12T14:07:02.572Z,74.50
2023-10-12T14:09:32.733Z,74.60
2023-10-12T14:12:01.528Z,74.80
2023-10-12T14:14:30.319Z,74.60
2023-10-12T14:16:59.100Z,74.60
2023-10-12T14:19:29.690Z,74.80
2023-10-12T14:22:04.961Z,74.70
2023-10-12T14:24:35.512Z,74.80
2023-10-12T14:27:07.909Z,74.70
2023-10-12T14:29:37.443Z,74.50
2023-10-12T14:32:06.381Z,74.80
2023-10-12T14:34:35.254Z,74.50
2023-10-12T14:37:14.534Z,74.50
2023-10-12T14:39:43.213Z,74.60
2023-10-12T14:42:12.036Z,74.60
2023-10-12T14:44:40.936Z,74.70
2023-10-12T14:47:09.414Z,74.60
2023-10-12T14:49:44.742Z,74.60
2023-10-12T14:52:16.502Z,74.60
2023-10-12T14:54:55.928Z,74.50
2023-10-12T14:57:26.021Z,74.80
2023-10-12T14:59:54.423Z,74.30
2023-10-12T15:02:23.281Z,74.50
2023-10-12T15:04:52.550Z,74.40
2023-10-12T15:07:22.445Z,74.20
2023-10-12T15:09:51.105Z,74.40
2023-10-12T15:12:22.713Z,74.70
2023-10-12T15:14:55.549Z,74.40
2023-10-12T15:17:24.308Z,74.50
2023-10-12T15:19:52.760Z,74.40
2023-10-12T15:22:22.758Z,74.30
2023-10-12T15:24:51.585Z,74.30
2023-10-12T15:27:21.255Z,74.20
2023-10-12T15:29:49.520Z,74.40
2023-10-12T15:32:18.005Z,74.30
2023-10-12T15:34:46.411Z,74.30
2023-10-12T15:37:15.040Z,74.20
2023-10-12T15:40:15.846Z,74.00
2023-10-12T15:46:49.803Z,73.90
2023-10-12T15:49:29.180Z,74.00
2023-10-12T15:52:13.089Z,74.00
2023-10-12T15:58:53.491Z,73.60
2023-10-12T16:01:26.650Z,73.80
2023-10-12T16:04:21.996Z,73.90
2023-10-12T16:06:50.352Z,74.00
2023-10-12T16:09:25.391Z,73.90
2023-10-12T16:11:53.835Z,74.10
2023-10-12T16:14:27.107Z,73.90
2023-10-12T16:16:56.317Z,73.80
2023-10-12T16:19:26.304Z,74.00
2023-10-12T16:21:56.988Z,73.90
2023-10-12T16:24:25.301Z,73.70
2023-10-12T16:26:53.628Z,73.60
2023-10-12T16:29:44.960Z,73.70
2023-10-12T16:32:21.844Z,73.40
2023-10-12T16:34:51.263Z,73.50
2023-10-12T16:37:19.667Z,73.60
2023-10-12T16:39:49.039Z,73.60
2023-10-12T16:42:18.084Z,73.60
2023-10-12T16:44:49.278Z,73.60
2023-10-12T16:47:22.818Z,73.40
2023-10-12T16:49:51.419Z,74.10
2023-10-12T16:52:19.854Z,73.50
2023-10-12T16:54:48.409Z,73.50
2023-10-12T16:57:25.077Z,73.50
2023-10-12T16:59:54.997Z,73.40
2023-10-12T17:02:24.521Z,73.50
2023-10-12T17:04:55.099Z,73.50
2023-10-12T17:07:25.382Z,73.30
2023-10-12T17:09:54.052Z,73.40
2023-10-12T17:12:22.562Z,73.40
2023-10-12T17:14:51.070Z,73.50
2023-10-12T17:17:22.227Z,73.40
2023-10-12T17:19:51.282Z,73.30
2023-10-12T17:22:20.004Z,73.40
2023-10-12T17:24:49.333Z,73.40
2023-10-12T17:27:19.058Z,73.40
2023-10-12T17:29:48.233Z,73.50
2023-10-12T17:32:21.207Z,73.60
2023-10-12T17:34:51.052Z,73.90
2023-10-12T17:37:19.345Z,73.80
2023-10-12T17:39:49.273Z,73.70
2023-10-12T17:42:19.570Z,73.70
2023-10-12T17:44:49.180Z,73.70
2023-10-12T17:47:18.559Z,73.70
2023-10-12T17:49:51.304Z,73.60
2023-10-12T17:52:21.663Z,73.60
2023-10-12T17:54:49.901Z,73.70
2023-10-12T17:57:19.924Z,74.00
2023-10-12T17:59:48.919Z,73.70
2023-10-12T18:02:20.442Z,73.80
2023-10-12T18:04:50.287Z,73.80
2023-10-12T18:07:19.300Z,73.70
2023-10-12T18:09:48.084Z,73.60
2023-10-12T18:12:16.303Z,74.10
2023-10-12T18:14:44.537Z,73.80
2023-10-12T18:17:13.514Z,73.80
2023-10-12T18:19:42.104Z,73.50
2023-10-12T18:22:13.187Z,73.90
2023-10-12T18:24:42.057Z,73.80
2023-10-12T18:27:21.332Z,74.00
2023-10-12T18:29:49.959Z,73.90
2023-10-12T18:32:24.623Z,74.10
2023-10-12T18:34:56.459Z,74.30
2023-10-12T18:37:26.610Z,74.00
2023-10-12T18:40:00.013Z,74.00
2023-10-12T18:42:41.616Z,74.20
2023-10-12T18:45:36.646Z,73.80
2023-10-12T18:48:31.109Z,74.30
2023-10-12T22:07:41.041Z,76.30
2023-10-12T22:13:23.441Z,76.60
2023-10-12T23:12:50.885Z,78.10
2023-10-12T23:15:19.605Z,78.50
2023-10-12T23:18:03.345Z,78.60
2023-10-12T23:23:28.742Z,78.40
2023-10-12T23:26:02.124Z,78.70
2023-10-12T23:28:32.180Z,78.50
2023-10-12T23:31:14.250Z,78.70
2023-10-12T23:33:46.276Z,78.80
2023-10-12T23:36:17.065Z,79.00
2023-10-12T23:39:04.372Z,78.80
2023-10-12T23:42:09.424Z,78.90
2023-10-12T23:48:38.384Z,78.90
2023-10-12T23:51:32.029Z,79.10
2023-10-12T23:54:28.390Z,78.80
2023-10-12T23:57:25.594Z,79.10
